sensor_id;sensor_type;location;lat;lon;timestamp;P1;durP1;ratioP1;P2;durP2;ratioP2
68985;SDS011;56035;37.534;-122.308;2023-02-15T00:01:39;9.57;;;1.77;;
68985;SDS011;56035;37.534;-122.308;2023-02-15T00:06:32;8.33;;;1.73;;
68985;SDS011;56035;37.534;-122.308;2023-02-15T00:08:59;9.93;;;1.80;;
68985;SDS011;56035;37.534;-122.308;2023-02-15T00:11:26;10.63;;;2.08;;
68985;SDS011;56035;37.534;-122.308;2023-02-15T00:14:30;9.03;;;1.93;;
68985;SDS011;56035;37.534;-122.308;2023-02-15T00:16:56;8.77;;;1.77;;
68985;SDS011;56035;37.534;-122.308;2023-02-15T00:19:25;13.07;;;2.80;;
68985;SDS011;56035;37.534;-122.308;2023-02-15T00:21:51;7.45;;;1.50;;
68985;SDS011;56035;37.534;-122.308;2023-02-15T00:24:18;11.18;;;1.83;;
68985;SDS011;56035;37.534;-122.308;2023-02-15T00:26:45;14.47;;;2.50;;
68985;SDS011;56035;37.534;-122.308;2023-02-15T00:29:13;14.93;;;2.77;;
68985;SDS011;56035;37.534;-122.308;2023-02-15T00:31:40;17.67;;;2.60;;
68985;SDS011;56035;37.534;-122.308;2023-02-15T00:36:38;16.40;;;3.07;;
68985;SDS011;56035;37.534;-122.308;2023-02-15T00:39:05;14.95;;;2.38;;
68985;SDS011;56035;37.534;-122.308;2023-02-15T00:41:31;15.57;;;2.80;;
68985;SDS011;56035;37.534;-122.308;2023-02-15T00:46:24;13.10;;;2.53;;
68985;SDS011;56035;37.534;-122.308;2023-02-15T00:48:51;15.77;;;3.03;;
68985;SDS011;56035;37.534;-122.308;2023-02-15T00:51:17;10.45;;;1.90;;
68985;SDS011;56035;37.534;-122.308;2023-02-15T00:53:43;10.60;;;2.50;;
68985;SDS011;56035;37.534;-122.308;2023-02-15T00:56:10;12.05;;;2.20;;
68985;SDS011;56035;37.534;-122.308;2023-02-15T00:58:36;22.95;;;2.47;;
68985;SDS011;56035;37.534;-122.308;2023-02-15T01:01:03;4.35;;;1.17;;
68985;SDS011;56035;37.534;-122.308;2023-02-15T01:03:31;14.00;;;2.57;;
68985;SDS011;56035;37.534;-122.308;2023-02-15T01:08:24;10.07;;;2.33;;
68985;SDS011;56035;37.534;-122.308;2023-02-15T01:10:51;9.45;;;1.63;;
68985;SDS011;56035;37.534;-122.308;2023-02-15T01:13:17;10.82;;;1.95;;
68985;SDS011;56035;37.534;-122.308;2023-02-15T01:15:43;13.13;;;2.15;;
68985;SDS011;56035;37.534;-122.308;2023-02-15T01:18:10;9.48;;;1.77;;
68985;SDS011;56035;37.534;-122.308;2023-02-15T01:20:38;9.50;;;2.00;;
68985;SDS011;56035;37.534;-122.308;2023-02-15T01:23:06;8.57;;;1.40;;
68985;SDS011;56035;37.534;-122.308;2023-02-15T01:25:34;13.60;;;2.33;;
68985;SDS011;56035;37.534;-122.308;2023-02-15T01:30:27;9.90;;;2.43;;
68985;SDS011;56035;37.534;-122.308;2023-02-15T01:32:53;10.57;;;2.17;;
68985;SDS011;56035;37.534;-122.308;2023-02-15T01:35:20;14.38;;;2.47;;
68985;SDS011;56035;37.534;-122.308;2023-02-15T01:37:46;10.90;;;1.70;;
68985;SDS011;56035;37.534;-122.308;2023-02-15T01:40:13;9.65;;;1.90;;
68985;SDS011;56035;37.534;-122.308;2023-02-15T01:42:42;9.80;;;1.50;;
68985;SDS011;56035;37.534;-122.308;2023-02-15T01:53:07;7.63;;;1.60;;
68985;SDS011;56035;37.534;-122.308;2023-02-15T01:55:44;13.50;;;2.83;;
68985;SDS011;56035;37.534;-122.308;2023-02-15T01:58:16;10.33;;;2.23;;
68985;SDS011;56035;37.534;-122.308;2023-02-15T02:03:09;11.70;;;2.47;;
68985;SDS011;56035;37.534;-122.308;2023-02-15T02:05:36;14.30;;;1.58;;
68985;SDS011;56035;37.534;-122.308;2023-02-15T02:08:04;11.47;;;2.57;;
68985;SDS011;56035;37.534;-122.308;2023-02-15T02:10:32;7.93;;;1.80;;
68985;SDS011;56035;37.534;-122.308;2023-02-15T02:12:59;8.52;;;1.42;;
68985;SDS011;56035;37.534;-122.308;2023-02-15T02:16:10;12.70;;;2.13;;
68985;SDS011;56035;37.534;-122.308;2023-02-15T02:27:12;9.87;;;2.00;;
68985;SDS011;56035;37.534;-122.308;2023-02-15T02:30:03;12.77;;;2.88;;
68985;SDS011;56035;37.534;-122.308;2023-02-15T02:35:43;12.50;;;2.75;;
68985;SDS011;56035;37.534;-122.308;2023-02-15T02:49:51;14.37;;;2.47;;
68985;SDS011;56035;37.534;-122.308;2023-02-15T02:52:39;8.90;;;1.63;;
68985;SDS011;56035;37.534;-122.308;2023-02-15T02:55:07;12.43;;;2.13;;
68985;SDS011;56035;37.534;-122.308;2023-02-15T03:00:21;11.50;;;2.57;;
68985;SDS011;56035;37.534;-122.308;2023-02-15T03:02:53;17.30;;;3.17;;
68985;SDS011;56035;37.534;-122.308;2023-02-15T03:05:30;24.93;;;3.03;;
68985;SDS011;56035;37.534;-122.308;2023-02-15T03:07:58;16.00;;;3.00;;
68985;SDS011;56035;37.534;-122.308;2023-02-15T03:10:26;12.97;;;3.03;;
68985;SDS011;56035;37.534;-122.308;2023-02-15T03:12:54;16.43;;;2.97;;
68985;SDS011;56035;37.534;-122.308;2023-02-15T03:15:22;16.35;;;3.60;;
68985;SDS011;56035;37.534;-122.308;2023-02-15T03:18:12;17.60;;;2.77;;
68985;SDS011;56035;37.534;-122.308;2023-02-15T03:20:40;12.47;;;2.43;;
68985;SDS011;56035;37.534;-122.308;2023-02-15T03:23:09;13.60;;;2.80;;
68985;SDS011;56035;37.534;-122.308;2023-02-15T03:25:40;11.47;;;2.63;;
68985;SDS011;56035;37.534;-122.308;2023-02-15T03:28:10;15.90;;;2.83;;
68985;SDS011;56035;37.534;-122.308;2023-02-15T03:30:44;19.70;;;3.27;;
68985;SDS011;56035;37.534;-122.308;2023-02-15T03:33:13;17.90;;;3.33;;
68985;SDS011;56035;37.534;-122.308;2023-02-15T03:38:20;14.38;;;3.00;;
68985;SDS011;56035;37.534;-122.308;2023-02-15T03:46:12;14.93;;;3.53;;
68985;SDS011;56035;37.534;-122.308;2023-02-15T03:48:47;17.10;;;2.60;;
68985;SDS011;56035;37.534;-122.308;2023-02-15T03:51:23;14.57;;;3.57;;
68985;SDS011;56035;37.534;-122.308;2023-02-15T03:54:03;24.73;;;6.33;;
68985;SDS011;56035;37.534;-122.308;2023-02-15T03:56:40;19.90;;;6.03;;
68985;SDS011;56035;37.534;-122.308;2023-02-15T03:59:27;25.17;;;7.03;;
68985;SDS011;56035;37.534;-122.308;2023-02-15T04:02:15;21.70;;;7.17;;
68985;SDS011;56035;37.534;-122.308;2023-02-15T04:04:49;20.83;;;5.90;;
68985;SDS011;56035;37.534;-122.308;2023-02-15T04:07:15;15.45;;;5.00;;
68985;SDS011;56035;37.534;-122.308;2023-02-15T04:09:42;22.52;;;6.40;;
68985;SDS011;56035;37.534;-122.308;2023-02-15T04:12:26;20.67;;;6.43;;
68985;SDS011;56035;37.534;-122.308;2023-02-15T04:14:52;21.98;;;5.78;;
68985;SDS011;56035;37.534;-122.308;2023-02-15T04:17:37;17.00;;;4.90;;
68985;SDS011;56035;37.534;-122.308;2023-02-15T04:20:04;18.17;;;3.75;;
68985;SDS011;56035;37.534;-122.308;2023-02-15T04:22:48;24.67;;;6.23;;
68985;SDS011;56035;37.534;-122.308;2023-02-15T04:25:33;13.33;;;3.60;;
68985;SDS011;56035;37.534;-122.308;2023-02-15T04:28:00;15.55;;;3.15;;
68985;SDS011;56035;37.534;-122.308;2023-02-15T04:30:26;11.98;;;3.00;;
68985;SDS011;56035;37.534;-122.308;2023-02-15T04:32:53;13.77;;;3.63;;
68985;SDS011;56035;37.534;-122.308;2023-02-15T04:35:20;8.10;;;2.10;;
68985;SDS011;56035;37.534;-122.308;2023-02-15T04:37:46;4.78;;;1.60;;
68985;SDS011;56035;37.534;-122.308;2023-02-15T04:40:13;5.18;;;1.85;;
68985;SDS011;56035;37.534;-122.308;2023-02-15T04:42:40;7.37;;;1.60;;
68985;SDS011;56035;37.534;-122.308;2023-02-15T04:45:07;9.40;;;2.00;;
68985;SDS011;56035;37.534;-122.308;2023-02-15T04:47:33;5.53;;;1.90;;
68985;SDS011;56035;37.534;-122.308;2023-02-15T04:49:59;8.25;;;2.20;;
68985;SDS011;56035;37.534;-122.308;2023-02-15T04:52:25;7.40;;;1.67;;
68985;SDS011;56035;37.534;-122.308;2023-02-15T04:54:52;5.90;;;1.73;;
68985;SDS011;56035;37.534;-122.308;2023-02-15T04:57:18;5.38;;;1.77;;
68985;SDS011;56035;37.534;-122.308;2023-02-15T04:59:44;7.22;;;1.92;;
68985;SDS011;56035;37.534;-122.308;2023-02-15T05:02:10;5.10;;;1.75;;
68985;SDS011;56035;37.534;-122.308;2023-02-15T05:04:36;5.15;;;1.73;;
68985;SDS011;56035;37.534;-122.308;2023-02-15T05:07:03;3.30;;;1.30;;
68985;SDS011;56035;37.534;-122.308;2023-02-15T05:09:29;3.17;;;1.20;;
68985;SDS011;56035;37.534;-122.308;2023-02-15T05:11:55;4.65;;;1.25;;
68985;SDS011;56035;37.534;-122.308;2023-02-15T05:14:21;2.40;;;0.80;;
68985;SDS011;56035;37.534;-122.308;2023-02-15T05:16:47;4.55;;;1.00;;
68985;SDS011;56035;37.534;-122.308;2023-02-15T05:19:14;2.83;;;0.90;;
68985;SDS011;56035;37.534;-122.308;2023-02-15T05:21:40;3.88;;;0.93;;
68985;SDS011;56035;37.534;-122.308;2023-02-15T05:24:06;4.85;;;1.00;;
68985;SDS011;56035;37.534;-122.308;2023-02-15T05:26:51;3.73;;;1.10;;
68985;SDS011;56035;37.534;-122.308;2023-02-15T05:29:35;3.53;;;0.90;;
68985;SDS011;56035;37.534;-122.308;2023-02-15T05:32:01;4.22;;;1.30;;
68985;SDS011;56035;37.534;-122.308;2023-02-15T05:34:29;3.27;;;0.90;;
68985;SDS011;56035;37.534;-122.308;2023-02-15T05:36:55;2.72;;;0.98;;
68985;SDS011;56035;37.534;-122.308;2023-02-15T05:39:22;1.90;;;0.90;;
68985;SDS011;56035;37.534;-122.308;2023-02-15T05:41:48;2.30;;;0.80;;
68985;SDS011;56035;37.534;-122.308;2023-02-15T05:44:15;4.43;;;0.77;;
68985;SDS011;56035;37.534;-122.308;2023-02-15T05:46:41;3.53;;;1.10;;
68985;SDS011;56035;37.534;-122.308;2023-02-15T05:49:07;1.88;;;0.70;;
68985;SDS011;56035;37.534;-122.308;2023-02-15T05:51:33;1.95;;;0.52;;
68985;SDS011;56035;37.534;-122.308;2023-02-15T05:53:59;1.33;;;0.60;;
68985;SDS011;56035;37.534;-122.308;2023-02-15T05:56:25;2.38;;;0.80;;
68985;SDS011;56035;37.534;-122.308;2023-02-15T05:58:52;2.00;;;0.85;;
68985;SDS011;56035;37.534;-122.308;2023-02-15T06:01:20;2.77;;;0.80;;
68985;SDS011;56035;37.534;-122.308;2023-02-15T06:03:49;3.43;;;0.90;;
68985;SDS011;56035;37.534;-122.308;2023-02-15T06:06:15;3.63;;;0.77;;
68985;SDS011;56035;37.534;-122.308;2023-02-15T06:08:42;1.83;;;0.63;;
68985;SDS011;56035;37.534;-122.308;2023-02-15T06:11:08;2.72;;;0.57;;
68985;SDS011;56035;37.534;-122.308;2023-02-15T06:13:35;2.10;;;0.60;;
68985;SDS011;56035;37.534;-122.308;2023-02-15T06:16:01;2.00;;;0.60;;
68985;SDS011;56035;37.534;-122.308;2023-02-15T06:18:27;1.50;;;0.52;;
68985;SDS011;56035;37.534;-122.308;2023-02-15T06:20:53;2.58;;;0.52;;
68985;SDS011;56035;37.534;-122.308;2023-02-15T06:23:19;3.05;;;0.55;;
68985;SDS011;56035;37.534;-122.308;2023-02-15T06:25:46;1.65;;;0.55;;
68985;SDS011;56035;37.534;-122.308;2023-02-15T06:28:12;2.17;;;0.60;;
68985;SDS011;56035;37.534;-122.308;2023-02-15T06:30:39;1.58;;;0.50;;
68985;SDS011;56035;37.534;-122.308;2023-02-15T06:33:05;2.08;;;0.50;;
68985;SDS011;56035;37.534;-122.308;2023-02-15T06:35:31;1.70;;;0.60;;
68985;SDS011;56035;37.534;-122.308;2023-02-15T06:37:57;4.30;;;0.55;;
68985;SDS011;56035;37.534;-122.308;2023-02-15T06:40:24;3.05;;;0.80;;
68985;SDS011;56035;37.534;-122.308;2023-02-15T06:42:50;3.10;;;0.80;;
68985;SDS011;56035;37.534;-122.308;2023-02-15T06:45:16;1.52;;;0.68;;
68985;SDS011;56035;37.534;-122.308;2023-02-15T06:47:42;2.15;;;0.70;;
68985;SDS011;56035;37.534;-122.308;2023-02-15T06:50:09;2.42;;;0.80;;
68985;SDS011;56035;37.534;-122.308;2023-02-15T06:52:35;4.15;;;1.10;;
68985;SDS011;56035;37.534;-122.308;2023-02-15T06:55:02;2.75;;;0.60;;
68985;SDS011;56035;37.534;-122.308;2023-02-15T06:57:28;3.40;;;0.57;;
68985;SDS011;56035;37.534;-122.308;2023-02-15T06:59:54;3.88;;;1.00;;
68985;SDS011;56035;37.534;-122.308;2023-02-15T07:02:21;2.10;;;0.85;;
68985;SDS011;56035;37.534;-122.308;2023-02-15T07:04:47;3.00;;;0.50;;
68985;SDS011;56035;37.534;-122.308;2023-02-15T07:07:13;2.20;;;0.47;;
68985;SDS011;56035;37.534;-122.308;2023-02-15T07:09:39;3.47;;;1.13;;
68985;SDS011;56035;37.534;-122.308;2023-02-15T07:12:06;2.15;;;0.73;;
68985;SDS011;56035;37.534;-122.308;2023-02-15T07:14:50;6.67;;;1.30;;
68985;SDS011;56035;37.534;-122.308;2023-02-15T07:17:17;2.80;;;0.82;;
68985;SDS011;56035;37.534;-122.308;2023-02-15T07:19:43;5.35;;;1.00;;
68985;SDS011;56035;37.534;-122.308;2023-02-15T07:22:10;1.58;;;0.50;;
68985;SDS011;56035;37.534;-122.308;2023-02-15T07:24:36;2.95;;;0.52;;
68985;SDS011;56035;37.534;-122.308;2023-02-15T07:27:02;3.15;;;0.50;;
68985;SDS011;56035;37.534;-122.308;2023-02-15T07:29:28;4.40;;;0.70;;
68985;SDS011;56035;37.534;-122.308;2023-02-15T07:31:54;2.08;;;0.35;;
68985;SDS011;56035;37.534;-122.308;2023-02-15T07:34:21;1.75;;;0.57;;
68985;SDS011;56035;37.534;-122.308;2023-02-15T07:36:47;1.70;;;0.63;;
68985;SDS011;56035;37.534;-122.308;2023-02-15T07:39:16;2.33;;;0.63;;
68985;SDS011;56035;37.534;-122.308;2023-02-15T07:41:42;3.75;;;1.23;;
68985;SDS011;56035;37.534;-122.308;2023-02-15T07:44:12;2.72;;;0.60;;
68985;SDS011;56035;37.534;-122.308;2023-02-15T07:46:40;4.63;;;0.90;;
68985;SDS011;56035;37.534;-122.308;2023-02-15T07:49:06;3.67;;;0.65;;
68985;SDS011;56035;37.534;-122.308;2023-02-15T07:51:33;2.90;;;0.60;;
68985;SDS011;56035;37.534;-122.308;2023-02-15T07:53:59;2.63;;;0.80;;
68985;SDS011;56035;37.534;-122.308;2023-02-15T07:56:25;2.22;;;0.55;;
68985;SDS011;56035;37.534;-122.308;2023-02-15T07:58:52;2.80;;;0.65;;
68985;SDS011;56035;37.534;-122.308;2023-02-15T08:01:23;3.80;;;0.93;;
68985;SDS011;56035;37.534;-122.308;2023-02-15T08:03:51;1.63;;;0.40;;
68985;SDS011;56035;37.534;-122.308;2023-02-15T08:06:19;2.27;;;0.50;;
68985;SDS011;56035;37.534;-122.308;2023-02-15T08:08:46;4.33;;;0.83;;
68985;SDS011;56035;37.534;-122.308;2023-02-15T08:11:17;2.22;;;0.57;;
68985;SDS011;56035;37.534;-122.308;2023-02-15T08:16:34;2.20;;;0.50;;
68985;SDS011;56035;37.534;-122.308;2023-02-15T08:19:12;3.27;;;0.63;;
68985;SDS011;56035;37.534;-122.308;2023-02-15T08:21:47;2.13;;;0.70;;
68985;SDS011;56035;37.534;-122.308;2023-02-15T08:24:16;1.73;;;0.50;;
68985;SDS011;56035;37.534;-122.308;2023-02-15T08:26:44;1.17;;;0.40;;
68985;SDS011;56035;37.534;-122.308;2023-02-15T08:29:12;4.07;;;1.23;;
68985;SDS011;56035;37.534;-122.308;2023-02-15T08:31:40;1.37;;;0.53;;
68985;SDS011;56035;37.534;-122.308;2023-02-15T08:34:07;0.88;;;0.30;;
68985;SDS011;56035;37.534;-122.308;2023-02-15T08:36:35;0.73;;;0.33;;
68985;SDS011;56035;37.534;-122.308;2023-02-15T08:39:03;1.63;;;0.40;;
68985;SDS011;56035;37.534;-122.308;2023-02-15T08:41:31;1.10;;;0.30;;
68985;SDS011;56035;37.534;-122.308;2023-02-15T08:44:00;1.00;;;0.30;;
68985;SDS011;56035;37.534;-122.308;2023-02-15T08:46:30;1.97;;;0.50;;
68985;SDS011;56035;37.534;-122.308;2023-02-15T08:48:59;1.87;;;0.50;;
68985;SDS011;56035;37.534;-122.308;2023-02-15T08:51:27;1.70;;;0.60;;
68985;SDS011;56035;37.534;-122.308;2023-02-15T08:53:57;1.57;;;0.43;;
68985;SDS011;56035;37.534;-122.308;2023-02-15T08:56:26;2.50;;;0.40;;
68985;SDS011;56035;37.534;-122.308;2023-02-15T08:58:55;2.13;;;0.50;;
68985;SDS011;56035;37.534;-122.308;2023-02-15T09:01:23;1.52;;;0.60;;
68985;SDS011;56035;37.534;-122.308;2023-02-15T09:03:58;1.47;;;0.50;;
68985;SDS011;56035;37.534;-122.308;2023-02-15T09:06:26;2.23;;;0.80;;
68985;SDS011;56035;37.534;-122.308;2023-02-15T09:11:21;1.47;;;0.30;;
68985;SDS011;56035;37.534;-122.308;2023-02-15T09:16:26;2.47;;;0.40;;
68985;SDS011;56035;37.534;-122.308;2023-02-15T09:18:56;1.10;;;0.40;;
68985;SDS011;56035;37.534;-122.308;2023-02-15T09:21:24;2.00;;;0.45;;
68985;SDS011;56035;37.534;-122.308;2023-02-15T09:23:52;2.90;;;0.60;;
68985;SDS011;56035;37.534;-122.308;2023-02-15T09:26:22;2.13;;;0.43;;
68985;SDS011;56035;37.534;-122.308;2023-02-15T09:28:53;2.90;;;0.43;;
68985;SDS011;56035;37.534;-122.308;2023-02-15T09:31:22;1.37;;;0.60;;
68985;SDS011;56035;37.534;-122.308;2023-02-15T09:33:54;1.60;;;0.40;;
68985;SDS011;56035;37.534;-122.308;2023-02-15T09:36:22;1.70;;;0.45;;
68985;SDS011;56035;37.534;-122.308;2023-02-15T09:38:57;1.27;;;0.40;;
68985;SDS011;56035;37.534;-122.308;2023-02-15T09:44:34;1.10;;;0.40;;
68985;SDS011;56035;37.534;-122.308;2023-02-15T09:55:48;2.57;;;0.40;;
68985;SDS011;56035;37.534;-122.308;2023-02-15T09:58:35;3.43;;;0.70;;
68985;SDS011;56035;37.534;-122.308;2023-02-15T10:01:24;2.27;;;0.60;;
68985;SDS011;56035;37.534;-122.308;2023-02-15T10:04:32;1.97;;;0.60;;
68985;SDS011;56035;37.534;-122.308;2023-02-15T10:10:15;2.00;;;0.37;;
68985;SDS011;56035;37.534;-122.308;2023-02-15T10:16:03;1.37;;;0.40;;
68985;SDS011;56035;37.534;-122.308;2023-02-15T10:18:55;1.27;;;0.50;;
68985;SDS011;56035;37.534;-122.308;2023-02-15T10:27:20;1.90;;;0.40;;
68985;SDS011;56035;37.534;-122.308;2023-02-15T10:29:50;1.00;;;0.40;;
68985;SDS011;56035;37.534;-122.308;2023-02-15T10:32:28;1.73;;;0.50;;
68985;SDS011;56035;37.534;-122.308;2023-02-15T11:05:36;2.17;;;0.50;;
68985;SDS011;56035;37.534;-122.308;2023-02-15T11:08:31;2.27;;;0.60;;
68985;SDS011;56035;37.534;-122.308;2023-02-15T11:11:02;1.13;;;0.40;;
68985;SDS011;56035;37.534;-122.308;2023-02-15T11:13:33;0.87;;;0.40;;
68985;SDS011;56035;37.534;-122.308;2023-02-15T11:21:32;3.37;;;0.50;;
68985;SDS011;56035;37.534;-122.308;2023-02-15T11:24:12;0.97;;;0.40;;
68985;SDS011;56035;37.534;-122.308;2023-02-15T11:26:43;1.53;;;0.50;;
68985;SDS011;56035;37.534;-122.308;2023-02-15T11:29:40;1.83;;;0.50;;
68985;SDS011;56035;37.534;-122.308;2023-02-15T11:32:30;2.87;;;0.50;;
68985;SDS011;56035;37.534;-122.308;2023-02-15T11:35:03;1.97;;;0.50;;
68985;SDS011;56035;37.534;-122.308;2023-02-15T11:37:47;0.97;;;0.30;;
68985;SDS011;56035;37.534;-122.308;2023-02-15T11:40:22;1.47;;;0.43;;
68985;SDS011;56035;37.534;-122.308;2023-02-15T11:42:55;1.43;;;0.40;;
68985;SDS011;56035;37.534;-122.308;2023-02-15T11:45:26;1.13;;;0.43;;
68985;SDS011;56035;37.534;-122.308;2023-02-15T11:47:57;1.50;;;0.40;;
68985;SDS011;56035;37.534;-122.308;2023-02-15T11:50:29;1.43;;;0.43;;
68985;SDS011;56035;37.534;-122.308;2023-02-15T11:53:09;1.90;;;0.40;;
68985;SDS011;56035;37.534;-122.308;2023-02-15T11:55:44;1.33;;;0.40;;
68985;SDS011;56035;37.534;-122.308;2023-02-15T11:58:30;1.27;;;0.40;;
68985;SDS011;56035;37.534;-122.308;2023-02-15T12:06:25;1.77;;;0.50;;
68985;SDS011;56035;37.534;-122.308;2023-02-15T12:14:49;1.20;;;0.50;;
68985;SDS011;56035;37.534;-122.308;2023-02-15T12:17:27;1.90;;;0.50;;
68985;SDS011;56035;37.534;-122.308;2023-02-15T12:19:57;0.80;;;0.30;;
68985;SDS011;56035;37.534;-122.308;2023-02-15T12:22:29;1.40;;;0.50;;
68985;SDS011;56035;37.534;-122.308;2023-02-15T12:31:21;0.83;;;0.30;;
68985;SDS011;56035;37.534;-122.308;2023-02-15T12:33:48;1.90;;;0.47;;
68985;SDS011;56035;37.534;-122.308;2023-02-15T12:36:19;2.10;;;0.30;;
68985;SDS011;56035;37.534;-122.308;2023-02-15T12:44:22;0.63;;;0.33;;
68985;SDS011;56035;37.534;-122.308;2023-02-15T12:49:31;0.70;;;0.40;;
68985;SDS011;56035;37.534;-122.308;2023-02-15T12:52:00;1.70;;;0.40;;
68985;SDS011;56035;37.534;-122.308;2023-02-15T12:54:30;0.60;;;0.30;;
68985;SDS011;56035;37.534;-122.308;2023-02-15T12:56:57;3.80;;;0.67;;
68985;SDS011;56035;37.534;-122.308;2023-02-15T12:59:24;1.87;;;0.50;;
68985;SDS011;56035;37.534;-122.308;2023-02-15T13:01:51;1.60;;;0.38;;
68985;SDS011;56035;37.534;-122.308;2023-02-15T13:06:52;1.50;;;0.40;;
68985;SDS011;56035;37.534;-122.308;2023-02-15T13:11:57;1.90;;;0.30;;
68985;SDS011;56035;37.534;-122.308;2023-02-15T13:14:57;2.93;;;0.40;;
68985;SDS011;56035;37.534;-122.308;2023-02-15T13:17:25;1.00;;;0.35;;
68985;SDS011;56035;37.534;-122.308;2023-02-15T13:20:04;0.65;;;0.20;;
68985;SDS011;56035;37.534;-122.308;2023-02-15T13:22:45;1.10;;;0.40;;
68985;SDS011;56035;37.534;-122.308;2023-02-15T13:25:21;2.20;;;0.43;;
68985;SDS011;56035;37.534;-122.308;2023-02-15T13:27:54;0.97;;;0.30;;
68985;SDS011;56035;37.534;-122.308;2023-02-15T13:30:27;1.33;;;0.40;;
68985;SDS011;56035;37.534;-122.308;2023-02-15T13:33:04;1.10;;;0.30;;
68985;SDS011;56035;37.534;-122.308;2023-02-15T13:36:02;0.50;;;0.30;;
68985;SDS011;56035;37.534;-122.308;2023-02-15T13:38:55;1.50;;;0.50;;
68985;SDS011;56035;37.534;-122.308;2023-02-15T13:41:43;2.50;;;0.53;;
68985;SDS011;56035;37.534;-122.308;2023-02-15T13:44:15;1.60;;;0.40;;
68985;SDS011;56035;37.534;-122.308;2023-02-15T13:46:57;1.30;;;0.60;;
68985;SDS011;56035;37.534;-122.308;2023-02-15T13:49:34;2.50;;;0.60;;
68985;SDS011;56035;37.534;-122.308;2023-02-15T13:52:22;2.37;;;0.40;;
68985;SDS011;56035;37.534;-122.308;2023-02-15T14:08:20;1.83;;;0.20;;
68985;SDS011;56035;37.534;-122.308;2023-02-15T14:11:17;1.07;;;0.40;;
68985;SDS011;56035;37.534;-122.308;2023-02-15T14:13:52;1.00;;;0.30;;
68985;SDS011;56035;37.534;-122.308;2023-02-15T14:25:14;0.60;;;0.40;;
68985;SDS011;56035;37.534;-122.308;2023-02-15T14:30:26;1.77;;;0.47;;
68985;SDS011;56035;37.534;-122.308;2023-02-15T14:35:43;0.77;;;0.27;;
68985;SDS011;56035;37.534;-122.308;2023-02-15T14:38:13;2.15;;;0.45;;
68985;SDS011;56035;37.534;-122.308;2023-02-15T14:41:09;1.17;;;0.40;;
68985;SDS011;56035;37.534;-122.308;2023-02-15T14:48:58;1.07;;;0.40;;
68985;SDS011;56035;37.534;-122.308;2023-02-15T14:54:52;1.20;;;0.40;;
68985;SDS011;56035;37.534;-122.308;2023-02-15T15:02:52;0.50;;;0.30;;
68985;SDS011;56035;37.534;-122.308;2023-02-15T15:05:20;1.13;;;0.50;;
68985;SDS011;56035;37.534;-122.308;2023-02-15T15:07:56;1.60;;;0.37;;
68985;SDS011;56035;37.534;-122.308;2023-02-15T15:12:54;2.63;;;0.50;;
68985;SDS011;56035;37.534;-122.308;2023-02-15T15:18:09;1.23;;;0.60;;
68985;SDS011;56035;37.534;-122.308;2023-02-15T15:25:48;2.00;;;0.50;;
68985;SDS011;56035;37.534;-122.308;2023-02-15T15:36:32;2.07;;;0.53;;
68985;SDS011;56035;37.534;-122.308;2023-02-15T15:42:32;1.60;;;0.30;;
68985;SDS011;56035;37.534;-122.308;2023-02-15T15:50:27;1.20;;;0.40;;
68985;SDS011;56035;37.534;-122.308;2023-02-15T15:52:54;1.15;;;0.52;;
68985;SDS011;56035;37.534;-122.308;2023-02-15T15:55:25;1.07;;;0.53;;
68985;SDS011;56035;37.534;-122.308;2023-02-15T15:57:55;1.30;;;0.60;;
68985;SDS011;56035;37.534;-122.308;2023-02-15T16:03:14;1.97;;;0.53;;
68985;SDS011;56035;37.534;-122.308;2023-02-15T16:05:51;2.27;;;0.37;;
68985;SDS011;56035;37.534;-122.308;2023-02-15T16:08:41;1.63;;;0.40;;
68985;SDS011;56035;37.534;-122.308;2023-02-15T16:11:11;3.13;;;0.60;;
68985;SDS011;56035;37.534;-122.308;2023-02-15T16:13:42;1.17;;;0.40;;
68985;SDS011;56035;37.534;-122.308;2023-02-15T16:16:11;1.03;;;0.40;;
68985;SDS011;56035;37.534;-122.308;2023-02-15T16:18:39;1.20;;;0.30;;
68985;SDS011;56035;37.534;-122.308;2023-02-15T16:21:21;1.40;;;0.40;;
68985;SDS011;56035;37.534;-122.308;2023-02-15T16:23:59;1.47;;;0.33;;
68985;SDS011;56035;37.534;-122.308;2023-02-15T16:26:53;2.20;;;0.40;;
68985;SDS011;56035;37.534;-122.308;2023-02-15T16:29:33;2.33;;;0.57;;
68985;SDS011;56035;37.534;-122.308;2023-02-15T16:32:19;2.87;;;0.60;;
68985;SDS011;56035;37.534;-122.308;2023-02-15T16:34:54;2.20;;;0.40;;
68985;SDS011;56035;37.534;-122.308;2023-02-15T16:37:26;1.37;;;0.50;;
68985;SDS011;56035;37.534;-122.308;2023-02-15T16:40:02;3.20;;;0.60;;
68985;SDS011;56035;37.534;-122.308;2023-02-15T16:42:28;1.88;;;0.50;;
68985;SDS011;56035;37.534;-122.308;2023-02-15T16:44:55;3.60;;;0.47;;
68985;SDS011;56035;37.534;-122.308;2023-02-15T16:47:29;2.60;;;0.37;;
68985;SDS011;56035;37.534;-122.308;2023-02-15T16:50:00;1.47;;;0.47;;
68985;SDS011;56035;37.534;-122.308;2023-02-15T16:52:28;1.47;;;0.50;;
68985;SDS011;56035;37.534;-122.308;2023-02-15T16:54:56;1.27;;;0.70;;
68985;SDS011;56035;37.534;-122.308;2023-02-15T16:57:35;1.10;;;0.50;;
68985;SDS011;56035;37.534;-122.308;2023-02-15T17:00:04;0.70;;;0.30;;
68985;SDS011;56035;37.534;-122.308;2023-02-15T17:02:42;0.80;;;0.20;;
68985;SDS011;56035;37.534;-122.308;2023-02-15T17:05:33;0.88;;;0.30;;
68985;SDS011;56035;37.534;-122.308;2023-02-15T17:08:15;0.47;;;0.20;;
68985;SDS011;56035;37.534;-122.308;2023-02-15T17:13:26;2.00;;;0.37;;
68985;SDS011;56035;37.534;-122.308;2023-02-15T17:18:26;1.53;;;0.30;;
68985;SDS011;56035;37.534;-122.308;2023-02-15T17:20:56;1.60;;;0.40;;
68985;SDS011;56035;37.534;-122.308;2023-02-15T17:23:44;0.40;;;0.20;;
68985;SDS011;56035;37.534;-122.308;2023-02-15T17:26:14;0.47;;;0.20;;
68985;SDS011;56035;37.534;-122.308;2023-02-15T17:28:49;1.10;;;0.27;;
68985;SDS011;56035;37.534;-122.308;2023-02-15T17:31:21;0.43;;;0.17;;
68985;SDS011;56035;37.534;-122.308;2023-02-15T17:33:53;1.43;;;0.30;;
68985;SDS011;56035;37.534;-122.308;2023-02-15T17:36:22;0.90;;;0.30;;
68985;SDS011;56035;37.534;-122.308;2023-02-15T17:41:26;0.83;;;0.37;;
68985;SDS011;56035;37.534;-122.308;2023-02-15T17:43:54;0.80;;;0.20;;
68985;SDS011;56035;37.534;-122.308;2023-02-15T17:46:20;0.70;;;0.20;;
68985;SDS011;56035;37.534;-122.308;2023-02-15T17:48:48;0.53;;;0.10;;
68985;SDS011;56035;37.534;-122.308;2023-02-15T17:51:19;1.03;;;0.40;;
68985;SDS011;56035;37.534;-122.308;2023-02-15T17:53:46;0.97;;;0.30;;
68985;SDS011;56035;37.534;-122.308;2023-02-15T17:56:35;0.47;;;0.20;;
68985;SDS011;56035;37.534;-122.308;2023-02-15T17:59:03;1.37;;;0.20;;
68985;SDS011;56035;37.534;-122.308;2023-02-15T18:01:34;0.20;;;0.10;;
68985;SDS011;56035;37.534;-122.308;2023-02-15T18:04:24;1.60;;;0.20;;
68985;SDS011;56035;37.534;-122.308;2023-02-15T18:07:09;0.40;;;0.20;;
68985;SDS011;56035;37.534;-122.308;2023-02-15T18:09:55;0.27;;;0.20;;
68985;SDS011;56035;37.534;-122.308;2023-02-15T18:12:40;1.37;;;0.60;;
68985;SDS011;56035;37.534;-122.308;2023-02-15T18:15:06;1.58;;;0.40;;
68985;SDS011;56035;37.534;-122.308;2023-02-15T18:20:28;1.20;;;0.30;;
68985;SDS011;56035;37.534;-122.308;2023-02-15T18:22:59;0.83;;;0.20;;
68985;SDS011;56035;37.534;-122.308;2023-02-15T18:25:26;1.23;;;0.27;;
68985;SDS011;56035;37.534;-122.308;2023-02-15T18:27:52;0.50;;;0.20;;
68985;SDS011;56035;37.534;-122.308;2023-02-15T18:30:19;0.70;;;0.20;;